createdAt,value
2023-01-09T00:01:16.539Z,66.44
2023-01-09T00:03:48.658Z,66.75
2023-01-09T00:06:19.745Z,66.66
2023-01-09T00:08:51.166Z,66.45
2023-01-09T00:11:23.411Z,66.64
2023-01-09T00:13:59.447Z,66.53
2023-01-09T00:16:32.821Z,66.57
2023-01-09T00:19:04.991Z,66.38
2023-01-09T00:21:37.081Z,66.78
2023-01-09T00:24:12.290Z,66.45
2023-01-09T00:26:44.651Z,66.42
2023-01-09T00:29:20.988Z,66.43
2023-01-09T00:31:54.127Z,66.50
2023-01-09T00:34:27.981Z,66.59
2023-01-09T00:37:00.163Z,66.65
2023-01-09T00:39:32.887Z,66.86
2023-01-09T00:42:05.814Z,66.64
2023-01-09T00:44:45.683Z,66.57
2023-01-09T00:47:22.114Z,66.68
2023-01-09T00:49:56.610Z,66.83
2023-01-09T00:52:29.065Z,66.57
2023-01-09T00:55:03.652Z,66.52
2023-01-09T00:57:36.828Z,66.41
2023-01-09T01:00:14.795Z,66.37
2023-01-09T01:02:47.213Z,66.62
2023-01-09T01:05:31.808Z,66.50
2023-01-09T01:08:03.912Z,66.47
2023-01-09T01:10:35.725Z,66.69
2023-01-09T01:13:08.168Z,66.40
2023-01-09T01:15:43.321Z,66.43
2023-01-09T01:18:18.302Z,66.61
2023-01-09T01:20:50.292Z,66.20
2023-01-09T01:23:22.989Z,66.12
2023-01-09T01:25:55.503Z,66.39
2023-01-09T01:28:28.397Z,66.37
2023-01-09T01:31:04.062Z,66.02
2023-01-09T01:33:37.248Z,66.03
2023-01-09T01:36:12.139Z,65.88
2023-01-09T01:38:45.673Z,65.77
2023-01-09T01:41:30.072Z,66.26
2023-01-09T01:44:04.998Z,65.77
2023-01-09T01:46:39.955Z,65.82
2023-01-09T01:49:21.158Z,65.81
2023-01-09T01:51:58.117Z,65.86
2023-01-09T01:54:34.204Z,65.77
2023-01-09T01:57:09.681Z,65.63
2023-01-09T01:59:46.013Z,65.50
2023-01-09T02:02:24.095Z,65.47
2023-01-09T02:04:59.515Z,65.81
2023-01-09T02:07:33.662Z,65.36
2023-01-09T02:10:06.046Z,65.46
2023-01-09T02:12:38.874Z,65.72
2023-01-09T02:15:15.426Z,65.52
2023-01-09T02:18:18.279Z,65.58
2023-01-09T02:20:59.826Z,65.79
2023-01-09T02:23:53.921Z,65.75
2023-01-09T02:26:48.296Z,65.83
2023-01-09T02:29:52.840Z,66.04
2023-01-09T02:32:39.435Z,66.17
2023-01-09T02:35:32.316Z,66.15
2023-01-09T02:38:12.652Z,66.17
2023-01-09T02:40:51.665Z,66.49
2023-01-09T02:43:24.792Z,66.50
2023-01-09T02:45:58.135Z,66.51
2023-01-09T02:48:33.655Z,66.41
2023-01-09T02:51:17.088Z,66.25
2023-01-09T02:54:22.272Z,66.33
2023-01-09T02:57:33.071Z,66.23
2023-01-09T03:00:15.275Z,66.44
2023-01-09T03:02:54.768Z,66.09
2023-01-09T03:05:34.865Z,66.04
2023-01-09T03:08:12.242Z,66.13
2023-01-09T03:10:50.733Z,66.24
2023-01-09T03:13:26.570Z,66.10
2023-01-09T03:15:59.267Z,66.12
2023-01-09T03:18:35.649Z,66.11
2023-01-09T03:21:12.237Z,66.13
2023-01-09T03:23:51.871Z,66.11
2023-01-09T03:26:24.230Z,66.14
2023-01-09T03:28:56.530Z,65.83
2023-01-09T03:31:27.915Z,65.62
2023-01-09T03:33:59.347Z,65.88
2023-01-09T03:36:33.070Z,65.56
2023-01-09T03:39:05.565Z,65.72
2023-01-09T03:41:36.897Z,65.64
2023-01-09T03:44:09.347Z,65.50
2023-01-09T03:46:42.198Z,65.54
2023-01-09T03:49:14.166Z,65.42
2023-01-09T03:51:47.927Z,65.42
2023-01-09T03:54:20.480Z,65.34
2023-01-09T03:56:52.376Z,65.30
2023-01-09T03:59:26.007Z,65.44
2023-01-09T04:01:57.619Z,65.23
2023-01-09T04:04:29.945Z,65.42
2023-01-09T04:07:04.578Z,65.49
2023-01-09T04:09:36.612Z,65.24
2023-01-09T04:12:09.532Z,65.10
2023-01-09T04:14:41.240Z,65.16
2023-01-09T04:17:12.566Z,65.06
2023-01-09T04:19:43.699Z,65.29
2023-01-09T04:22:17.546Z,65.27
2023-01-09T04:24:49.608Z,65.27
2023-01-09T04:27:21.064Z,65.19
2023-01-09T04:29:53.248Z,65.00
2023-01-09T04:32:24.897Z,65.05
2023-01-09T04:34:56.969Z,65.30
2023-01-09T04:37:34.021Z,65.03
2023-01-09T04:40:08.918Z,65.09
2023-01-09T04:42:41.409Z,65.31
2023-01-09T04:45:16.324Z,65.47
2023-01-09T04:47:49.648Z,65.39
2023-01-09T04:50:22.274Z,65.41
2023-01-09T04:52:57.388Z,65.02
2023-01-09T04:55:30.822Z,65.49
2023-01-09T04:58:02.698Z,65.42
2023-01-09T05:00:35.548Z,65.52
2023-01-09T05:03:08.744Z,65.16
2023-01-09T05:05:41.388Z,64.72
2023-01-09T05:08:15.494Z,64.09
2023-01-09T05:10:47.692Z,63.21
2023-01-09T05:13:20.726Z,62.95
2023-01-09T05:15:53.083Z,63.00
2023-01-09T05:18:25.081Z,62.68
2023-01-09T05:20:56.953Z,63.49
2023-01-09T05:23:32.384Z,63.45
2023-01-09T05:26:05.006Z,63.94
2023-01-09T05:28:36.740Z,64.27
2023-01-09T05:31:08.353Z,64.83
2023-01-09T05:33:42.071Z,65.05
2023-01-09T05:36:16.621Z,65.45
2023-01-09T05:38:53.675Z,65.81
2023-01-09T05:41:28.247Z,65.98
2023-01-09T05:44:01.838Z,66.84
2023-01-09T05:46:34.416Z,66.70
2023-01-09T05:49:06.607Z,67.29
2023-01-09T05:51:40.393Z,67.25
2023-01-09T05:54:17.681Z,67.77
2023-01-09T05:56:49.464Z,67.89
2023-01-09T05:59:24.355Z,67.88
2023-01-09T06:01:58.086Z,68.58
2023-01-09T06:04:30.572Z,68.53
2023-01-09T06:07:03.572Z,68.77
2023-01-09T06:09:40.920Z,68.73
2023-01-09T06:12:16.824Z,68.86
2023-01-09T06:14:52.799Z,68.69
2023-01-09T06:17:29.830Z,68.46
2023-01-09T06:20:00.672Z,68.93
2023-01-09T06:22:31.325Z,68.74
2023-01-09T06:25:04.711Z,69.29
2023-01-09T06:27:35.336Z,69.14
2023-01-09T06:30:05.984Z,69.92
2023-01-09T06:32:36.628Z,69.99
2023-01-09T06:35:07.860Z,70.54
2023-01-09T06:37:38.449Z,70.27
2023-01-09T06:40:13.410Z,71.40
2023-01-09T06:42:47.024Z,71.51
2023-01-09T06:45:17.718Z,71.39
2023-01-09T06:47:50.262Z,71.44
2023-01-09T06:50:21.402Z,71.87
2023-01-09T06:52:52.038Z,72.07
2023-01-09T06:55:26.572Z,71.84
2023-01-09T06:57:57.528Z,72.02
2023-01-09T07:00:28.403Z,71.15
2023-01-09T07:02:58.941Z,70.49
2023-01-09T07:05:29.870Z,70.03
2023-01-09T07:08:00.516Z,69.21
2023-01-09T07:10:33.777Z,68.63
2023-01-09T07:13:04.293Z,68.10
2023-01-09T07:15:34.699Z,66.73
2023-01-09T07:18:05.383Z,66.10
2023-01-09T07:20:35.948Z,65.67
2023-01-09T07:23:06.681Z,65.25
2023-01-09T07:25:39.959Z,65.03
2023-01-09T07:28:10.591Z,64.07
2023-01-09T07:30:41.304Z,63.40
2023-01-09T07:33:12.001Z,63.67
2023-01-09T07:35:42.636Z,63.28
2023-01-09T07:38:13.102Z,63.18
2023-01-09T07:40:46.501Z,62.58
2023-01-09T07:43:17.096Z,62.52
2023-01-09T07:45:49.473Z,62.82
2023-01-09T07:48:19.989Z,62.44
2023-01-09T07:50:51.096Z,62.04
2023-01-09T07:53:21.859Z,62.31
2023-01-09T07:55:55.203Z,61.59
2023-01-09T07:58:25.733Z,61.57
2023-01-09T08:00:56.367Z,61.28
2023-01-09T08:03:27.377Z,59.98
2023-01-09T08:05:57.993Z,60.48
2023-01-09T08:08:28.537Z,59.18
2023-01-09T08:11:01.811Z,59.48
2023-01-09T08:13:32.344Z,59.15
2023-01-09T08:16:03.107Z,58.93
2023-01-09T08:18:33.623Z,58.74
2023-01-09T08:21:04.347Z,57.74
2023-01-09T08:23:34.922Z,57.85
2023-01-09T08:26:08.318Z,56.61
2023-01-09T08:28:38.838Z,57.30
2023-01-09T08:31:09.943Z,56.99
2023-01-09T08:33:40.701Z,56.83
2023-01-09T08:36:12.466Z,56.53
2023-01-09T08:38:43.059Z,56.75
2023-01-09T08:41:28.483Z,56.53
2023-01-09T08:44:11.302Z,56.99
2023-01-09T08:46:54.416Z,56.93
2023-01-09T08:49:25.008Z,57.17
2023-01-09T08:51:56.801Z,56.60
2023-01-09T08:54:27.311Z,56.91
2023-01-09T08:57:00.541Z,57.33
2023-01-09T08:59:31.294Z,57.09
2023-01-09T09:02:01.907Z,57.29
2023-01-09T09:04:32.637Z,57.03
2023-01-09T09:07:03.211Z,57.32
2023-01-09T09:09:33.793Z,57.36
2023-01-09T09:12:07.408Z,57.58
2023-01-09T09:14:50.168Z,57.30
2023-01-09T09:17:20.688Z,57.43
2023-01-09T09:19:51.360Z,56.88
2023-01-09T09:22:22.153Z,56.97
2023-01-09T09:24:52.791Z,56.83
2023-01-09T09:27:26.192Z,57.16
2023-01-09T09:29:56.660Z,56.39
2023-01-09T09:32:27.346Z,56.43
2023-01-09T09:34:57.893Z,57.16
2023-01-09T09:37:28.505Z,57.01
2023-01-09T09:40:01.428Z,56.59
2023-01-09T09:43:03.887Z,56.22
2023-01-09T09:45:47.103Z,56.79
2023-01-09T09:48:32.931Z,56.72
2023-01-09T09:51:26.069Z,56.70
2023-01-09T09:54:02.516Z,57.12
2023-01-09T09:56:37.697Z,57.00
2023-01-09T09:59:18.751Z,57.31
2023-01-09T10:01:56.206Z,57.47
2023-01-09T10:04:29.152Z,57.67
2023-01-09T10:07:06.393Z,58.08
2023-01-09T10:09:48.649Z,58.35
2023-01-09T10:12:31.877Z,57.70
2023-01-09T10:15:10.388Z,57.89
2023-01-09T10:17:55.057Z,58.04
2023-01-09T10:20:47.953Z,58.25
2023-01-09T10:23:42.239Z,58.26
2023-01-09T10:26:19.829Z,58.56
2023-01-09T10:29:26.485Z,58.04
2023-01-09T10:32:08.893Z,57.92
2023-01-09T10:34:52.867Z,57.73
2023-01-09T10:37:26.655Z,58.16
2023-01-09T10:40:02.436Z,57.68
2023-01-09T10:42:38.746Z,57.95
2023-01-09T10:45:20.692Z,57.33
2023-01-09T10:47:53.822Z,56.77
2023-01-09T10:50:26.611Z,55.93
2023-01-09T10:52:59.297Z,55.94
2023-01-09T10:55:40.008Z,55.33
2023-01-09T10:58:15.757Z,55.68
2023-01-09T11:00:46.788Z,54.70
2023-01-09T11:03:22.694Z,53.96
2023-01-09T11:05:55.645Z,54.03
2023-01-09T11:08:31.013Z,53.39
2023-01-09T11:11:03.515Z,53.39
2023-01-09T11:13:36.883Z,53.74
2023-01-09T11:16:10.911Z,52.85
2023-01-09T11:18:52.950Z,52.38
2023-01-09T11:21:36.322Z,52.80
2023-01-09T11:24:32.869Z,52.80
2023-01-09T11:27:27.284Z,52.77
2023-01-09T11:30:20.385Z,53.00
2023-01-09T11:32:51.508Z,52.88
2023-01-09T11:35:33.933Z,52.59
2023-01-09T11:38:12.316Z,52.12
2023-01-09T11:40:51.120Z,51.60
2023-01-09T11:43:25.836Z,51.22
2023-01-09T11:46:01.637Z,51.33
2023-01-09T11:48:44.208Z,50.97
2023-01-09T11:51:25.156Z,51.09
2023-01-09T11:54:11.266Z,50.93
2023-01-09T11:56:42.570Z,51.24
2023-01-09T11:59:15.705Z,50.50
2023-01-09T12:02:08.414Z,50.55
2023-01-09T12:04:44.472Z,50.93
2023-01-09T12:07:38.643Z,49.84
2023-01-09T12:10:26.485Z,50.35
2023-01-09T12:13:06.335Z,50.85
2023-01-09T12:15:45.669Z,50.71
2023-01-09T12:18:35.658Z,50.78
2023-01-09T12:21:21.072Z,50.77
2023-01-09T12:24:06.201Z,50.71
2023-01-09T12:26:42.510Z,50.98
2023-01-09T12:29:27.747Z,50.71
2023-01-09T12:32:20.179Z,50.65
2023-01-09T12:35:00.647Z,50.35
2023-01-09T12:37:51.716Z,50.58
2023-01-09T12:40:41.989Z,50.50
2023-01-09T12:43:22.113Z,51.02
2023-01-09T12:46:07.127Z,51.04
2023-01-09T12:48:49.814Z,51.16
2023-01-09T12:51:40.738Z,51.08
2023-01-09T12:54:19.118Z,51.50
2023-01-09T12:56:57.767Z,51.65
2023-01-09T12:59:36.083Z,51.88
2023-01-09T13:02:19.925Z,51.04
2023-01-09T13:04:55.629Z,51.06
2023-01-09T13:07:29.622Z,50.74
2023-01-09T13:10:05.610Z,51.03
2023-01-09T13:12:42.634Z,51.25
2023-01-09T13:15:32.737Z,50.76
2023-01-09T13:18:08.747Z,51.38
2023-01-09T13:20:45.194Z,51.72
2023-01-09T13:23:23.505Z,52.01
2023-01-09T13:25:57.929Z,51.97
2023-01-09T13:28:37.324Z,52.44
2023-01-09T13:31:31.105Z,52.26
2023-01-09T13:34:04.589Z,52.70
2023-01-09T13:36:41.696Z,52.95
2023-01-09T13:39:23.864Z,53.04
2023-01-09T13:42:12.618Z,53.21
2023-01-09T13:44:46.245Z,53.16
2023-01-09T13:47:25.462Z,53.23
2023-01-09T13:50:24.827Z,53.56
2023-01-09T13:52:55.560Z,53.67
2023-01-09T13:55:31.923Z,54.05
2023-01-09T13:58:22.908Z,54.56
2023-01-09T14:00:58.779Z,54.47
2023-01-09T14:03:33.446Z,54.71
2023-01-09T14:06:19.490Z,54.82
2023-01-09T14:08:52.549Z,54.88
2023-01-09T14:11:29.303Z,55.15
2023-01-09T14:14:07.216Z,55.28
2023-01-09T14:16:41.090Z,55.08
2023-01-09T14:19:29.500Z,55.33
2023-01-09T14:22:01.140Z,55.55
2023-01-09T14:24:35.456Z,55.82
2023-01-09T14:27:05.983Z,55.82
2023-01-09T14:29:51.534Z,56.34
2023-01-09T14:32:45.309Z,56.66
2023-01-09T14:35:30.051Z,56.39
2023-01-09T14:38:26.290Z,56.76
2023-01-09T14:41:01.912Z,56.73
2023-01-09T14:43:43.141Z,57.05
2023-01-09T14:46:17.966Z,57.06
2023-01-09T14:49:18.861Z,57.40
2023-01-09T14:51:52.584Z,57.50
2023-01-09T14:54:30.943Z,57.71
2023-01-09T14:57:02.738Z,57.89
2023-01-09T14:59:33.600Z,57.94
2023-01-09T15:02:04.255Z,58.22
2023-01-09T15:04:41.093Z,58.77
2023-01-09T15:07:26.182Z,58.87
2023-01-09T15:09:56.831Z,58.72
2023-01-09T15:12:27.914Z,58.85
2023-01-09T15:15:01.497Z,59.12
2023-01-09T15:17:39.632Z,59.18
2023-01-09T15:20:22.347Z,59.31
2023-01-09T15:22:54.836Z,59.29
2023-01-09T15:25:38.029Z,59.26
2023-01-09T15:28:27.874Z,59.21
2023-01-09T15:31:09.014Z,59.36
2023-01-09T15:33:43.405Z,59.08
2023-01-09T15:36:20.773Z,59.40
2023-01-09T15:38:52.209Z,59.13
2023-01-09T15:41:40.504Z,59.16
2023-01-09T15:44:17.654Z,59.46
2023-01-09T15:46:50.390Z,59.49
2023-01-09T15:49:22.140Z,59.62
2023-01-09T15:51:56.311Z,59.44
2023-01-09T15:54:31.796Z,59.40
2023-01-09T15:57:16.881Z,59.87
2023-01-09T15:59:47.650Z,59.78
2023-01-09T16:02:31.435Z,59.53
2023-01-09T16:05:02.109Z,58.96
2023-01-09T16:07:36.997Z,59.03
2023-01-09T16:10:08.431Z,60.04
2023-01-09T16:12:39.143Z,61.98
2023-01-09T16:15:18.734Z,63.20
2023-01-09T16:18:10.600Z,62.20
2023-01-09T16:20:41.557Z,63.50
2023-01-09T16:23:25.322Z,65.95
2023-01-09T16:26:06.453Z,68.04
2023-01-09T16:28:40.906Z,69.26
2023-01-09T16:31:24.035Z,70.12
2023-01-09T16:34:01.807Z,70.51
2023-01-09T16:36:32.459Z,71.00
2023-01-09T16:39:08.034Z,73.46
2023-01-09T16:41:50.540Z,74.05
2023-01-09T16:44:20.926Z,74.61
2023-01-09T16:46:51.503Z,74.31
2023-01-09T16:49:24.742Z,74.06
2023-01-09T16:51:55.664Z,74.05
2023-01-09T16:54:29.284Z,73.53
2023-01-09T16:57:00.408Z,72.81
2023-01-09T16:59:31.609Z,72.17
2023-01-09T17:02:02.697Z,71.55
2023-01-09T17:04:33.275Z,71.92
2023-01-09T17:07:05.064Z,71.69
2023-01-09T17:09:39.307Z,72.37
2023-01-09T17:12:15.666Z,73.04
2023-01-09T17:14:46.435Z,73.09
2023-01-09T17:17:20.739Z,73.24
2023-01-09T17:19:52.389Z,72.94
2023-01-09T17:22:23.710Z,73.17
2023-01-09T17:25:10.011Z,72.51
2023-01-09T17:27:53.568Z,71.32
2023-01-09T17:30:24.783Z,70.96
2023-01-09T17:32:56.201Z,70.62
2023-01-09T17:35:27.147Z,71.08
2023-01-09T17:37:58.241Z,71.26
2023-01-09T17:40:35.104Z,72.14
2023-01-09T17:43:05.876Z,72.83
2023-01-09T17:45:36.691Z,73.30
2023-01-09T17:48:08.050Z,73.22
2023-01-09T17:50:39.204Z,73.54
2023-01-09T17:53:10.025Z,73.01
2023-01-09T17:55:44.477Z,72.11
2023-01-09T17:58:29.333Z,72.46
2023-01-09T18:01:01.049Z,71.68
2023-01-09T18:03:34.761Z,70.69
2023-01-09T18:06:06.418Z,69.81
2023-01-09T18:08:37.193Z,69.11
2023-01-09T18:11:12.186Z,68.36
2023-01-09T18:13:44.087Z,67.62
2023-01-09T18:16:16.468Z,66.91
2023-01-09T18:18:48.697Z,66.52
2023-01-09T18:21:22.713Z,66.08
2023-01-09T18:23:53.889Z,65.46
2023-01-09T18:26:27.710Z,65.13
2023-01-09T18:29:02.225Z,64.49
2023-01-09T18:31:33.878Z,64.44
2023-01-09T18:34:07.071Z,64.26
2023-01-09T18:36:38.520Z,64.14
2023-01-09T18:39:10.190Z,64.41
2023-01-09T18:41:43.463Z,64.20
2023-01-09T18:44:14.478Z,64.22
2023-01-09T18:46:47.194Z,64.32
2023-01-09T18:49:19.221Z,65.41
2023-01-09T18:51:50.241Z,65.56
2023-01-09T18:54:22.297Z,65.89
2023-01-09T18:56:55.892Z,65.76
2023-01-09T18:59:26.644Z,66.08
2023-01-09T19:01:58.219Z,65.88
2023-01-09T19:04:30.654Z,67.89
2023-01-09T19:07:01.560Z,68.07
2023-01-09T19:09:32.270Z,68.10
2023-01-09T19:12:05.627Z,67.97
2023-01-09T19:14:36.099Z,67.88
2023-01-09T19:17:06.869Z,67.71
2023-01-09T19:19:37.768Z,68.59
2023-01-09T19:22:08.319Z,68.96
2023-01-09T19:24:39.460Z,68.68
2023-01-09T19:27:12.740Z,67.81
2023-01-09T19:29:43.392Z,68.45
2023-01-09T19:32:14.647Z,69.68
2023-01-09T19:34:45.294Z,71.81
2023-01-09T19:37:16.291Z,70.52
2023-01-09T19:39:48.111Z,68.81
2023-01-09T19:42:21.653Z,69.62
2023-01-09T19:44:53.441Z,70.40
2023-01-09T19:47:24.243Z,71.11
2023-01-09T19:49:55.648Z,69.66
2023-01-09T19:52:27.594Z,68.75
2023-01-09T19:54:58.470Z,70.84
2023-01-09T19:57:34.628Z,69.60
2023-01-09T20:00:05.717Z,68.16
2023-01-09T20:02:44.057Z,67.97
2023-01-09T20:05:16.208Z,68.54
2023-01-09T20:07:48.464Z,68.89
2023-01-09T20:10:21.128Z,68.22
2023-01-09T20:12:55.101Z,66.58
2023-01-09T20:15:25.617Z,67.61
2023-01-09T20:17:57.365Z,67.31
2023-01-09T20:20:29.599Z,67.44
2023-01-09T20:23:01.485Z,66.01
2023-01-09T20:25:32.422Z,65.54
2023-01-09T20:28:05.860Z,66.32
2023-01-09T20:30:37.874Z,67.09
2023-01-09T20:33:08.993Z,65.64
2023-01-09T20:35:40.122Z,65.21
2023-01-09T20:38:11.363Z,65.95
2023-01-09T20:40:44.186Z,66.58
2023-01-09T20:43:17.478Z,66.13
2023-01-09T20:45:48.051Z,65.42
2023-01-09T20:48:19.318Z,67.02
2023-01-09T20:50:49.878Z,66.13
2023-01-09T20:53:20.715Z,65.29
2023-01-09T20:55:51.269Z,65.04
2023-01-09T20:58:24.648Z,66.13
2023-01-09T21:00:55.220Z,67.41
2023-01-09T21:03:26.272Z,67.64
2023-01-09T21:05:57.729Z,67.25
2023-01-09T21:08:29.174Z,67.33
2023-01-09T21:11:00.357Z,66.71
2023-01-09T21:13:34.502Z,65.30
2023-01-09T21:16:07.688Z,66.70
2023-01-09T21:18:39.797Z,67.62
2023-01-09T21:21:14.176Z,67.65
2023-01-09T21:23:48.604Z,68.02
2023-01-09T21:26:22.473Z,72.43
2023-01-09T21:28:57.051Z,68.75
2023-01-09T21:31:33.671Z,67.58
2023-01-09T21:34:06.706Z,64.22
2023-01-09T21:36:38.368Z,64.93
2023-01-09T21:39:09.105Z,66.81
2023-01-09T21:42:06.867Z,68.81
2023-01-09T21:44:52.270Z,80.76
2023-01-09T21:47:23.135Z,75.52
2023-01-09T21:49:53.769Z,74.10
2023-01-09T21:52:25.813Z,73.08
2023-01-09T21:54:58.001Z,72.25
2023-01-09T21:57:28.586Z,71.17
2023-01-09T22:00:01.926Z,70.19
2023-01-09T22:02:42.243Z,69.57
2023-01-09T22:05:13.022Z,68.60
2023-01-09T22:07:43.737Z,67.42
2023-01-09T22:10:15.478Z,66.45
2023-01-09T22:13:06.605Z,66.45
2023-01-09T22:15:41.484Z,65.77
2023-01-09T22:18:12.003Z,65.40
2023-01-09T22:20:42.737Z,64.57
2023-01-09T22:23:13.253Z,64.12
2023-01-09T22:25:44.760Z,62.06
2023-01-09T22:28:15.357Z,61.94
2023-01-09T22:30:48.647Z,64.42
2023-01-09T22:33:19.293Z,66.16
2023-01-09T22:35:53.890Z,66.48
2023-01-09T22:38:24.356Z,68.39
2023-01-09T22:40:54.850Z,69.41
2023-01-09T22:43:25.767Z,70.56
2023-01-09T22:46:02.046Z,76.26
2023-01-09T22:48:34.748Z,73.11
2023-01-09T22:51:06.422Z,71.85
2023-01-09T22:53:37.641Z,71.38
2023-01-09T22:56:11.229Z,70.23
2023-01-09T22:58:42.271Z,69.09
2023-01-09T23:01:16.329Z,67.54
2023-01-09T23:03:46.933Z,66.74
2023-01-09T23:06:19.728Z,66.62
2023-01-09T23:08:51.229Z,66.71
2023-01-09T23:11:44.284Z,67.03
2023-01-09T23:14:15.891Z,67.91
2023-01-09T23:16:49.232Z,68.26
2023-01-09T23:19:20.054Z,68.16
2023-01-09T23:21:50.797Z,68.87
2023-01-09T23:24:22.833Z,69.30
2023-01-09T23:26:53.294Z,69.54
2023-01-09T23:29:24.218Z,70.02
2023-01-09T23:31:58.644Z,70.31
2023-01-09T23:34:29.235Z,69.52
2023-01-09T23:36:59.729Z,69.26
2023-01-09T23:39:30.380Z,70.66
2023-01-09T23:42:13.130Z,72.36
2023-01-09T23:44:43.540Z,72.73
2023-01-09T23:47:16.671Z,73.38
2023-01-09T23:49:48.132Z,74.38
2023-01-09T23:52:18.752Z,75.20
2023-01-09T23:54:49.405Z,74.34
2023-01-09T23:57:19.870Z,73.08
2023-01-09T23:59:50.440Z,77.23
